Baileyville, Illinois
Current Conditions -  °F | °C
As of 10:35 AM on Friday 31 Oct 2014 (Local Time) from KFEP Reporting Station
Scattered Clouds Scattered Clouds  
Wind Chill: 27°   Ceiling: Unl
Heat Index: 37°   Visibility: 10mi
Dew Point: 22°   Wind: 18mph
Humidity: 53%   Direction: 350°N
Pressure: 30.29"   Gusts: 32mph
Location:  42.2°N, 89.59°W
Report Text: KFEP 311535Z AUTO 35016G28KT 10SM SCT040 03/M06 A3029 RMK AO2 T00301058
Loading
Personal Weather Stations






























Interactive Weather Map
Tropical Storm Tracking
New forecast layout! Learn more

10-Day Weather Forecast

Advertisements
Track Severe Weather on mobile